createdAt,value
2022-07-29T00:02:17.745Z,99233.00
2022-07-29T00:04:44.471Z,99234.06
2022-07-29T00:07:11.349Z,99233.59
2022-07-29T00:09:51.001Z,99236.03
2022-07-29T00:12:21.489Z,99228.72
2022-07-29T00:14:56.736Z,99231.16
2022-07-29T00:17:24.543Z,99219.25
2022-07-29T00:19:51.568Z,99226.31
2022-07-29T00:22:18.463Z,99224.16
2022-07-29T00:24:45.080Z,99225.81
2022-07-29T00:27:11.643Z,99227.97
2022-07-29T00:29:38.233Z,99227.16
2022-07-29T00:32:05.098Z,99222.31
2022-07-29T00:34:50.581Z,99229.88
2022-07-29T00:37:17.279Z,99229.88
2022-07-29T00:39:44.176Z,99229.06
2022-07-29T00:42:10.982Z,99229.91
2022-07-29T00:44:39.089Z,99218.81
2022-07-29T00:47:06.160Z,99224.78
2022-07-29T00:49:33.803Z,99221.81
2022-07-29T00:52:03.238Z,99232.66
2022-07-29T00:54:30.208Z,99216.13
2022-07-29T00:57:00.095Z,99211.81
2022-07-29T00:59:34.389Z,99214.78
2022-07-29T01:02:03.476Z,99210.44
2022-07-29T01:04:30.770Z,99209.94
2022-07-29T01:06:57.713Z,99207.47
2022-07-29T01:09:42.732Z,99206.94
2022-07-29T01:12:11.665Z,99207.50
2022-07-29T01:14:38.609Z,99211.81
2022-07-29T01:17:27.393Z,99215.09
2022-07-29T01:20:01.034Z,99201.81
2022-07-29T01:22:46.033Z,99209.13
2022-07-29T01:25:40.046Z,99203.72
2022-07-29T01:28:18.769Z,99208.88
2022-07-29T01:30:46.272Z,99206.97
2022-07-29T01:33:35.120Z,99204.81
2022-07-29T01:36:08.619Z,99212.66
2022-07-29T01:38:36.697Z,99210.22
2022-07-29T01:41:10.189Z,99207.78
2022-07-29T01:43:43.307Z,99224.03
2022-07-29T01:46:16.057Z,99214.81
2022-07-29T01:48:48.806Z,99224.84
2022-07-29T01:51:19.614Z,99210.22
2022-07-29T01:53:56.086Z,99216.19
2022-07-29T01:56:24.174Z,99216.72
2022-07-29T01:58:53.170Z,99215.38
2022-07-29T02:01:20.816Z,99222.66
2022-07-29T02:03:47.974Z,99224.56
2022-07-29T02:06:18.396Z,99211.84
2022-07-29T02:08:45.578Z,99217.78
2022-07-29T02:11:12.535Z,99214.28
2022-07-29T02:13:39.452Z,99223.41
2022-07-29T02:16:08.418Z,99223.41
2022-07-29T02:18:37.800Z,99219.63
2022-07-29T02:21:04.642Z,99228.81
2022-07-29T02:23:45.290Z,99231.25
2022-07-29T02:26:19.124Z,99225.56
2022-07-29T02:28:46.379Z,99230.69
2022-07-29T02:31:13.739Z,99224.19
2022-07-29T02:33:41.709Z,99225.25
2022-07-29T02:36:08.574Z,99216.38
2022-07-29T02:38:51.297Z,99220.66
2022-07-29T02:41:24.776Z,99217.16
2022-07-29T02:43:55.350Z,99221.22
2022-07-29T02:46:31.427Z,99215.25
2022-07-29T02:49:21.934Z,99224.47
2022-07-29T02:52:03.401Z,99220.66
2022-07-29T02:54:34.191Z,99223.88
2022-07-29T02:57:05.096Z,99225.50
2022-07-29T02:59:33.888Z,99220.34
2022-07-29T03:02:01.330Z,99223.59
2022-07-29T03:04:29.496Z,99223.88
2022-07-29T03:06:59.486Z,99226.31
2022-07-29T03:09:26.511Z,99219.00
2022-07-29T03:11:55.453Z,99219.28
2022-07-29T03:14:23.970Z,99220.91
2022-07-29T03:16:51.501Z,99219.28
2022-07-29T03:19:18.946Z,99223.03
2022-07-29T03:21:45.579Z,99228.44
2022-07-29T03:24:25.893Z,99222.78
2022-07-29T03:26:52.565Z,99228.19
2022-07-29T03:29:19.121Z,99222.50
2022-07-29T03:31:46.967Z,99223.34
2022-07-29T03:34:15.326Z,99223.03
2022-07-29T03:36:42.257Z,99220.66
2022-07-29T03:39:10.289Z,99224.97
2022-07-29T03:41:38.006Z,99212.81
2022-07-29T03:44:06.301Z,99225.25
2022-07-29T03:46:34.852Z,99214.44
2022-07-29T03:49:02.392Z,99224.50
2022-07-29T03:51:33.295Z,99240.44
2022-07-29T03:54:06.357Z,99225.03
2022-07-29T03:56:39.555Z,99240.44
2022-07-29T03:59:06.536Z,99235.84
2022-07-29T04:01:34.661Z,99233.97
2022-07-29T04:04:02.322Z,99248.63
2022-07-29T04:06:28.986Z,99292.75
2022-07-29T04:08:55.618Z,99306.34
2022-07-29T04:11:22.213Z,99339.41
2022-07-29T04:13:48.854Z,99345.75
2022-07-29T04:16:15.561Z,99280.22
2022-07-29T04:18:42.281Z,99257.16
2022-07-29T04:21:08.867Z,99254.38
2022-07-29T04:23:35.474Z,99255.97
2022-07-29T04:26:14.590Z,99250.16
2022-07-29T04:28:43.194Z,99249.72
2022-07-29T04:31:10.865Z,99248.47
2022-07-29T04:33:37.608Z,99243.91
2022-07-29T04:36:04.554Z,99243.81
2022-07-29T04:38:51.142Z,99237.94
2022-07-29T04:41:17.751Z,99243.28
2022-07-29T04:43:47.460Z,99240.75
2022-07-29T04:46:14.164Z,99245.50
2022-07-29T04:48:40.895Z,99251.34
2022-07-29T04:51:07.916Z,99249.31
2022-07-29T04:53:34.681Z,99256.06
2022-07-29T04:56:01.283Z,99246.53
2022-07-29T04:58:27.913Z,99247.84
2022-07-29T05:00:54.621Z,99249.13
2022-07-29T05:03:21.264Z,99253.56
2022-07-29T05:05:47.919Z,99251.09
2022-07-29T05:08:14.701Z,99242.88
2022-07-29T05:10:41.348Z,99247.00
2022-07-29T05:13:08.650Z,99243.91
2022-07-29T05:15:35.989Z,99256.03
2022-07-29T05:18:02.856Z,99246.34
2022-07-29T05:20:30.406Z,99250.56
2022-07-29T05:23:01.436Z,99252.44
2022-07-29T05:25:43.934Z,99252.34
2022-07-29T05:28:12.490Z,99259.47
2022-07-29T05:30:39.391Z,99251.34
2022-07-29T05:33:06.151Z,99256.38
2022-07-29T05:35:32.930Z,99259.78
2022-07-29T05:37:59.611Z,99258.97
2022-07-29T05:40:26.221Z,99256.19
2022-07-29T05:42:52.799Z,99267.41
2022-07-29T05:45:19.548Z,99258.97
2022-07-29T05:47:46.500Z,99275.47
2022-07-29T05:50:13.550Z,99273.56
2022-07-29T05:52:40.451Z,99275.03
2022-07-29T05:55:07.457Z,99274.22
2022-07-29T05:57:34.182Z,99269.00
2022-07-29T06:00:00.770Z,99266.41
2022-07-29T06:02:27.408Z,99269.50
2022-07-29T06:04:54.782Z,99266.63
2022-07-29T06:07:21.699Z,99269.72
2022-07-29T06:09:48.355Z,99265.50
2022-07-29T06:12:15.411Z,99259.22
2022-07-29T06:14:42.189Z,99267.00
2022-07-29T06:17:08.882Z,99255.38
2022-07-29T06:19:36.269Z,99266.56
2022-07-29T06:22:03.122Z,99267.56
2022-07-29T06:24:29.799Z,99271.91
2022-07-29T06:26:56.886Z,99265.41
2022-07-29T06:29:23.473Z,99273.38
2022-07-29T06:31:50.082Z,99267.44
2022-07-29T06:34:17.360Z,99274.13
2022-07-29T06:36:44.445Z,99277.38
2022-07-29T06:39:12.847Z,99271.97
2022-07-29T06:41:39.697Z,99260.75
2022-07-29T06:44:10.989Z,99280.34
2022-07-29T06:46:39.568Z,99273.72
2022-07-29T06:49:07.864Z,99277.16
2022-07-29T06:51:34.966Z,99273.22
2022-07-29T06:54:02.729Z,99280.19
2022-07-29T06:56:39.352Z,99281.34
2022-07-29T06:59:11.909Z,99276.56
2022-07-29T07:01:40.544Z,99274.72
2022-07-29T07:04:09.720Z,99281.34
2022-07-29T07:06:37.470Z,99280.25
2022-07-29T07:09:04.711Z,99269.91
2022-07-29T07:11:32.837Z,99277.75
2022-07-29T07:14:03.594Z,99273.25
2022-07-29T07:16:32.028Z,99271.78
2022-07-29T07:18:58.772Z,99272.09
2022-07-29T07:21:26.775Z,99270.88
2022-07-29T07:24:00.132Z,99275.81
2022-07-29T07:26:28.087Z,99275.38
2022-07-29T07:28:55.543Z,99277.66
2022-07-29T07:31:22.708Z,99283.16
2022-07-29T07:33:50.448Z,99282.88
2022-07-29T07:36:17.330Z,99281.97
2022-07-29T07:38:44.674Z,99272.94
2022-07-29T07:41:11.565Z,99273.09
2022-07-29T07:43:38.950Z,99272.53
2022-07-29T07:46:06.253Z,99283.88
2022-07-29T07:48:33.229Z,99281.34
2022-07-29T07:51:00.126Z,99287.97
2022-07-29T07:53:27.160Z,99284.44
2022-07-29T07:56:10.074Z,99289.22
2022-07-29T07:58:39.868Z,99282.38
2022-07-29T08:01:06.886Z,99292.13
2022-07-29T08:03:34.482Z,99280.66
2022-07-29T08:06:01.496Z,99284.91
2022-07-29T08:08:28.737Z,99286.56
2022-07-29T08:10:57.428Z,99290.13
2022-07-29T08:13:28.276Z,99293.59
2022-07-29T08:15:59.076Z,99287.13
2022-07-29T08:18:28.071Z,99282.16
2022-07-29T08:20:56.638Z,99289.81
2022-07-29T08:23:32.907Z,99287.91
2022-07-29T08:26:14.036Z,99292.69
2022-07-29T08:28:45.995Z,99283.34
2022-07-29T08:31:14.597Z,99284.66
2022-07-29T08:33:42.265Z,99290.84
2022-07-29T08:36:09.500Z,99285.84
2022-07-29T08:38:36.423Z,99295.50
2022-07-29T08:41:03.479Z,99289.66
2022-07-29T08:43:30.426Z,99287.84
2022-07-29T08:45:57.389Z,99285.47
2022-07-29T08:48:25.933Z,99291.06
2022-07-29T08:50:59.276Z,99282.47
2022-07-29T08:53:28.343Z,99284.28
2022-07-29T08:55:57.210Z,99279.13
2022-07-29T08:58:25.603Z,99286.59
2022-07-29T09:00:55.554Z,99279.84
2022-07-29T09:03:28.032Z,99287.28
2022-07-29T09:05:55.476Z,99277.72
2022-07-29T09:08:22.771Z,99283.91
2022-07-29T09:10:51.040Z,99272.25
2022-07-29T09:13:17.986Z,99266.75
2022-07-29T09:15:45.448Z,99268.31
2022-07-29T09:18:20.318Z,99257.41
2022-07-29T09:21:15.897Z,99270.25
2022-07-29T09:23:44.609Z,99268.09
2022-07-29T09:26:11.261Z,99269.19
2022-07-29T09:28:45.279Z,99258.72
2022-07-29T09:31:12.270Z,99261.16
2022-07-29T09:33:41.489Z,99260.66
2022-07-29T09:36:11.532Z,99257.84
2022-07-29T09:38:38.488Z,99257.13
2022-07-29T09:41:07.047Z,99256.72
2022-07-29T09:43:35.574Z,99251.84
2022-07-29T09:46:13.362Z,99258.78
2022-07-29T09:48:40.999Z,99252.34
2022-07-29T09:51:25.527Z,99251.97
2022-07-29T09:53:58.481Z,99240.81
2022-07-29T09:56:40.628Z,99237.78
2022-07-29T09:59:08.882Z,99236.28
2022-07-29T10:01:36.902Z,99230.22
2022-07-29T10:04:03.892Z,99236.78
2022-07-29T10:06:30.770Z,99230.34
2022-07-29T10:09:09.526Z,99231.59
2022-07-29T10:11:48.356Z,99222.19
2022-07-29T10:14:17.442Z,99232.19
2022-07-29T10:16:44.522Z,99220.47
2022-07-29T10:19:11.682Z,99216.03
2022-07-29T10:21:40.830Z,99215.59
2022-07-29T10:24:07.592Z,99218.63
2022-07-29T10:26:41.928Z,99218.03
2022-07-29T10:29:08.726Z,99219.13
2022-07-29T10:32:10.899Z,99212.28
2022-07-29T10:35:03.133Z,99218.66
2022-07-29T10:37:39.672Z,99217.78
2022-07-29T10:40:49.500Z,99210.84
2022-07-29T10:43:29.995Z,99205.22
2022-07-29T10:46:00.713Z,99202.88
2022-07-29T10:48:27.521Z,99205.38
2022-07-29T10:50:59.704Z,99203.59
2022-07-29T10:53:47.465Z,99204.66
2022-07-29T10:56:28.628Z,99191.84
2022-07-29T10:59:27.051Z,99195.72
2022-07-29T11:02:35.441Z,99194.50
2022-07-29T11:04:47.252Z,99185.47
2022-07-29T11:07:17.467Z,99183.66
2022-07-29T11:09:46.407Z,99183.03
2022-07-29T11:12:39.414Z,99171.53
2022-07-29T11:15:09.084Z,99181.53
2022-07-29T11:17:53.920Z,99173.88
2022-07-29T11:20:42.521Z,99182.31
2022-07-29T11:23:21.733Z,99176.34
2022-07-29T11:26:13.532Z,99171.03
2022-07-29T11:28:49.958Z,99162.91
2022-07-29T11:31:18.503Z,99166.16
2022-07-29T11:33:55.981Z,99156.22
2022-07-29T11:39:36.310Z,99157.88
2022-07-29T11:42:32.410Z,99160.03
2022-07-29T11:45:08.829Z,99147.25
2022-07-29T11:47:50.346Z,99142.41
2022-07-29T11:50:28.325Z,99142.22
2022-07-29T11:52:55.625Z,99144.56
2022-07-29T11:55:23.915Z,99140.97
2022-07-29T11:58:03.507Z,99136.47
2022-07-29T12:00:36.589Z,99128.97
2022-07-29T12:03:06.240Z,99137.69
2022-07-29T12:05:48.056Z,99137.94
2022-07-29T12:07:01.663Z,99153.81
2022-07-29T12:08:20.706Z,99136.31
2022-07-29T12:10:49.031Z,99133.44
2022-07-29T12:13:17.478Z,99128.94
2022-07-29T12:15:55.846Z,99128.88
2022-07-29T12:18:27.778Z,99124.91
2022-07-29T12:20:59.638Z,99124.13
2022-07-29T12:23:34.755Z,99125.22
2022-07-29T12:26:07.267Z,99120.97
2022-07-29T12:28:40.391Z,99109.13
2022-07-29T12:31:08.230Z,99105.22
2022-07-29T12:33:35.918Z,99111.47
2022-07-29T12:36:06.815Z,99106.00
2022-07-29T12:38:35.813Z,99106.81
2022-07-29T12:41:04.525Z,99106.63
2022-07-29T12:43:31.651Z,99095.88
2022-07-29T12:45:58.398Z,99098.97
2022-07-29T12:48:38.739Z,99099.03
2022-07-29T12:51:07.696Z,99086.84
2022-07-29T12:53:34.761Z,99091.66
2022-07-29T12:56:15.577Z,99096.25
2022-07-29T12:58:51.417Z,99096.41
2022-07-29T13:01:21.987Z,99092.69
2022-07-29T13:03:59.758Z,99088.50
2022-07-29T13:06:29.509Z,99088.13
2022-07-29T13:09:15.887Z,99089.88
2022-07-29T13:11:48.801Z,99086.78
2022-07-29T13:14:32.586Z,99088.81
2022-07-29T13:17:04.998Z,99096.53
2022-07-29T13:19:52.151Z,99090.31
2022-07-29T13:22:23.247Z,99089.22
2022-07-29T13:24:54.016Z,99089.66
2022-07-29T13:27:26.125Z,99095.19
2022-07-29T13:29:53.853Z,99089.34
2022-07-29T13:32:28.297Z,99087.03
2022-07-29T13:34:56.816Z,99090.78
2022-07-29T13:37:23.400Z,99106.53
2022-07-29T13:39:52.842Z,99098.00
2022-07-29T13:42:20.332Z,99108.84
2022-07-29T13:44:46.901Z,99110.78
2022-07-29T13:47:13.901Z,99111.66
2022-07-29T13:49:40.765Z,99114.81
2022-07-29T13:52:08.494Z,99138.78
2022-07-29T13:54:42.084Z,99172.09
2022-07-29T13:57:09.822Z,99193.72
2022-07-29T13:59:36.413Z,99210.34
2022-07-29T14:02:03.502Z,99209.97
2022-07-29T14:04:30.294Z,99201.53
2022-07-29T14:06:57.017Z,99196.31
2022-07-29T14:09:23.901Z,99206.06
2022-07-29T14:11:52.235Z,99204.41
2022-07-29T14:14:18.839Z,99202.13
2022-07-29T14:16:47.752Z,99190.94
2022-07-29T14:19:17.138Z,99186.19
2022-07-29T14:21:43.898Z,99185.53
2022-07-29T14:24:15.627Z,99182.75
2022-07-29T14:26:44.381Z,99184.34
2022-07-29T14:29:13.035Z,99179.91
2022-07-29T14:31:39.868Z,99173.84
2022-07-29T14:34:06.497Z,99177.44
2022-07-29T14:36:33.214Z,99173.69
2022-07-29T14:38:59.771Z,99170.75
2022-07-29T14:41:29.081Z,99177.19
2022-07-29T14:43:55.789Z,99172.78
2022-07-29T14:46:22.720Z,99172.09
2022-07-29T14:48:49.493Z,99168.44
2022-07-29T14:51:16.100Z,99167.28
2022-07-29T14:53:42.694Z,99168.56
2022-07-29T14:56:35.001Z,99162.09
2022-07-29T14:58:58.298Z,99168.84
2022-07-29T15:01:25.656Z,99172.03
2022-07-29T15:03:55.759Z,99166.41
2022-07-29T15:06:26.344Z,99163.16
2022-07-29T15:08:52.947Z,99166.56
2022-07-29T15:11:19.560Z,99169.84
2022-07-29T15:13:46.126Z,99178.25
2022-07-29T15:16:12.790Z,99173.84
2022-07-29T15:18:39.537Z,99160.69
2022-07-29T15:21:07.877Z,99164.91
2022-07-29T15:23:37.276Z,99144.69
2022-07-29T15:26:04.998Z,99143.22
2022-07-29T15:28:31.761Z,99144.81
2022-07-29T15:30:58.366Z,99150.13
2022-07-29T15:33:25.083Z,99146.84
2022-07-29T15:35:51.698Z,99148.56
2022-07-29T15:38:18.650Z,99135.16
2022-07-29T15:40:46.621Z,99126.34
2022-07-29T15:43:13.441Z,99130.03
2022-07-29T15:45:41.522Z,99132.91
2022-07-29T15:48:09.595Z,99136.16
2022-07-29T15:50:36.267Z,99121.19
2022-07-29T15:53:02.912Z,99130.22
2022-07-29T15:55:29.571Z,99129.25
2022-07-29T15:58:00.252Z,99135.88
2022-07-29T16:00:27.555Z,99129.25
2022-07-29T16:02:54.118Z,99124.25
2022-07-29T16:05:20.837Z,99114.88
2022-07-29T16:07:47.446Z,99117.31
2022-07-29T16:10:14.002Z,99114.25
2022-07-29T16:12:40.643Z,99108.50
2022-07-29T16:15:10.479Z,99102.53
2022-07-29T16:17:38.387Z,99108.03
2022-07-29T16:20:06.380Z,99107.09
2022-07-29T16:22:33.019Z,99102.53
2022-07-29T16:24:59.686Z,99106.22
2022-07-29T16:27:35.324Z,99099.00
2022-07-29T16:30:05.626Z,99099.63
2022-07-29T16:32:32.247Z,99095.34
2022-07-29T16:34:58.858Z,99094.13
2022-07-29T16:37:25.876Z,99097.66
2022-07-29T16:39:55.446Z,99096.88
2022-07-29T16:42:44.337Z,99097.41
2022-07-29T16:45:09.599Z,99092.22
2022-07-29T16:47:36.290Z,99087.97
2022-07-29T16:50:03.067Z,99098.84
2022-07-29T16:52:29.658Z,99089.63
2022-07-29T16:54:56.297Z,99090.84
2022-07-29T16:57:23.418Z,99094.88
2022-07-29T16:59:51.233Z,99105.97
2022-07-29T17:02:17.996Z,99094.09
2022-07-29T17:04:44.647Z,99098.13
2022-07-29T17:07:11.680Z,99101.16
2022-07-29T17:09:38.340Z,99096.19
2022-07-29T17:12:05.320Z,99100.13
2022-07-29T17:14:32.244Z,99098.31
2022-07-29T17:17:02.400Z,99107.06
2022-07-29T17:19:34.054Z,99102.97
2022-07-29T17:22:19.281Z,99100.34
2022-07-29T17:24:47.602Z,99094.19
2022-07-29T17:27:14.535Z,99096.75
2022-07-29T17:29:41.474Z,99096.63
2022-07-29T17:32:09.338Z,99103.09
2022-07-29T17:34:37.407Z,99093.59
2022-07-29T17:37:05.719Z,99100.19
2022-07-29T17:39:34.013Z,99099.25
2022-07-29T17:42:00.679Z,99108.44
2022-07-29T17:44:27.263Z,99103.13
2022-07-29T17:46:53.912Z,99104.25
2022-07-29T17:49:20.648Z,99106.16
2022-07-29T17:51:47.355Z,99114.50
2022-07-29T17:54:14.210Z,99116.41
2022-07-29T17:56:41.515Z,99112.50
2022-07-29T17:59:10.023Z,99108.97
2022-07-29T18:01:38.085Z,99103.47
2022-07-29T18:04:04.827Z,99087.81
2022-07-29T18:06:31.433Z,99086.31
2022-07-29T18:08:58.096Z,99093.28
2022-07-29T18:11:24.741Z,99100.72
2022-07-29T18:13:51.335Z,99109.09
2022-07-29T18:16:18.645Z,99114.84
2022-07-29T18:18:45.743Z,99110.09
2022-07-29T18:21:12.644Z,99108.25
2022-07-29T18:23:39.227Z,99111.09
2022-07-29T18:26:05.851Z,99115.78
2022-07-29T18:28:32.807Z,99110.56
2022-07-29T18:31:00.687Z,99119.19
2022-07-29T18:33:27.847Z,99122.59
2022-07-29T18:36:06.070Z,99129.88
2022-07-29T18:38:39.947Z,99134.84
2022-07-29T18:41:06.650Z,99132.22
2022-07-29T18:43:33.265Z,99120.41
2022-07-29T18:45:59.839Z,99118.31
2022-07-29T18:48:26.975Z,99119.59
2022-07-29T18:50:53.620Z,99121.91
2022-07-29T18:53:20.233Z,99121.63
2022-07-29T18:55:46.843Z,99127.88
2022-07-29T18:58:13.553Z,99131.22
2022-07-29T19:00:40.153Z,99124.19
2022-07-29T19:03:08.269Z,99120.03
2022-07-29T19:05:34.938Z,99120.81
2022-07-29T19:08:01.824Z,99119.81
2022-07-29T19:10:28.479Z,99117.47
2022-07-29T19:12:55.262Z,99120.59
2022-07-29T19:15:21.868Z,99123.69
2022-07-29T19:17:48.697Z,99123.19
2022-07-29T19:20:15.859Z,99129.50
2022-07-29T19:22:42.574Z,99135.25
2022-07-29T19:25:10.051Z,99139.34
2022-07-29T19:27:36.846Z,99144.88
2022-07-29T19:30:06.452Z,99142.25
2022-07-29T19:32:33.255Z,99132.53
2022-07-29T19:35:18.182Z,99135.56
2022-07-29T19:37:44.846Z,99141.31
2022-07-29T19:40:12.571Z,99150.84
2022-07-29T19:42:39.266Z,99143.53
2022-07-29T19:45:06.575Z,99160.75
2022-07-29T19:47:33.252Z,99164.56
2022-07-29T19:50:00.669Z,99164.06
2022-07-29T19:52:27.810Z,99165.97
2022-07-29T19:54:54.446Z,99165.75
2022-07-29T19:57:21.013Z,99171.25
2022-07-29T19:59:47.643Z,99171.53
2022-07-29T20:02:14.351Z,99167.78
2022-07-29T20:04:42.755Z,99174.91
2022-07-29T20:07:09.467Z,99182.84
2022-07-29T20:09:36.237Z,99181.81
2022-07-29T20:12:04.738Z,99175.63
2022-07-29T20:14:31.343Z,99171.88
2022-07-29T20:16:58.112Z,99173.25
2022-07-29T20:19:24.932Z,99180.31
2022-07-29T20:21:51.610Z,99173.75
2022-07-29T20:24:19.180Z,99173.31
2022-07-29T20:26:45.868Z,99172.28
2022-07-29T20:29:12.816Z,99167.94
2022-07-29T20:31:39.517Z,99170.16
2022-07-29T20:34:06.161Z,99175.59
2022-07-29T20:36:32.887Z,99166.38
2022-07-29T20:39:00.033Z,99163.44
2022-07-29T20:41:26.979Z,99165.34
2022-07-29T20:43:53.700Z,99177.63
2022-07-29T20:46:20.372Z,99176.69
2022-07-29T20:48:47.291Z,99175.66
2022-07-29T20:51:14.503Z,99170.50
2022-07-29T20:53:41.477Z,99175.41
2022-07-29T20:56:08.177Z,99171.38
2022-07-29T20:58:36.165Z,99169.75
2022-07-29T21:01:03.352Z,99166.00
2022-07-29T21:03:30.098Z,99169.81
2022-07-29T21:05:56.688Z,99160.34
2022-07-29T21:08:23.332Z,99159.81
2022-07-29T21:10:50.053Z,99160.38
2022-07-29T21:13:17.045Z,99154.38
2022-07-29T21:15:46.384Z,99166.66
2022-07-29T21:18:30.344Z,99160.13
2022-07-29T21:21:01.835Z,99149.53
2022-07-29T21:23:28.836Z,99158.78
2022-07-29T21:25:55.618Z,99154.44
2022-07-29T21:28:40.978Z,99163.19
2022-07-29T21:31:10.469Z,99161.06
2022-07-29T21:33:37.306Z,99159.16
2022-07-29T21:36:26.615Z,99157.53
2022-07-29T21:38:51.177Z,99154.84
2022-07-29T21:41:17.877Z,99152.69
2022-07-29T21:43:46.042Z,99144.84
2022-07-29T21:46:12.781Z,99141.59
2022-07-29T21:48:44.245Z,99135.13
2022-07-29T21:51:11.391Z,99139.75
2022-07-29T21:53:37.986Z,99134.09
2022-07-29T21:56:06.579Z,99139.81
2022-07-29T21:58:36.979Z,99133.06
2022-07-29T22:01:03.729Z,99137.66
2022-07-29T22:03:30.391Z,99138.75
2022-07-29T22:05:56.956Z,99135.00
2022-07-29T22:08:23.572Z,99139.09
2022-07-29T22:10:50.386Z,99132.59
2022-07-29T22:13:16.941Z,99134.53
2022-07-29T22:15:47.012Z,99137.31
2022-07-29T22:18:20.428Z,99136.22
2022-07-29T22:20:47.497Z,99138.94
2022-07-29T22:23:14.051Z,99137.63
2022-07-29T22:25:40.683Z,99136.00
2022-07-29T22:28:07.255Z,99139.28
2022-07-29T22:30:33.941Z,99134.94
2022-07-29T22:33:00.577Z,99126.28
2022-07-29T22:35:27.289Z,99132.81
2022-07-29T22:37:54.209Z,99136.88
2022-07-29T22:40:20.870Z,99132.81
2022-07-29T22:42:47.483Z,99128.47
2022-07-29T22:45:14.107Z,99124.94
2022-07-29T22:47:47.872Z,99129.00
2022-07-29T22:50:15.575Z,99131.72
2022-07-29T22:52:42.203Z,99130.09
2022-07-29T22:55:09.153Z,99131.72
2022-07-29T22:57:35.778Z,99130.59
2022-07-29T23:00:02.585Z,99135.53
2022-07-29T23:02:29.267Z,99130.38
2022-07-29T23:04:55.974Z,99133.91
2022-07-29T23:07:22.933Z,99144.75
2022-07-29T23:09:49.550Z,99150.72
2022-07-29T23:12:16.117Z,99153.94
2022-07-29T23:14:42.738Z,99148.00
2022-07-29T23:17:09.344Z,99151.22
2022-07-29T23:19:35.946Z,99153.38
2022-07-29T23:22:02.540Z,99139.78
2022-07-29T23:24:29.106Z,99143.94
2022-07-29T23:26:55.661Z,99139.75
2022-07-29T23:29:22.313Z,99149.78
2022-07-29T23:31:48.887Z,99147.94
2022-07-29T23:34:15.502Z,99157.69
2022-07-29T23:36:42.407Z,99156.50
2022-07-29T23:39:11.353Z,99145.22
2022-07-29T23:41:38.398Z,99140.44
2022-07-29T23:44:05.297Z,99146.94
2022-07-29T23:46:32.014Z,99143.72
2022-07-29T23:48:58.625Z,99145.19
2022-07-29T23:51:25.236Z,99140.56
2022-07-29T23:53:53.296Z,99143.06
2022-07-29T23:56:20.803Z,99147.34
2022-07-29T23:58:47.432Z,99159.00
